sensor_id;sensor_type;location;lat;lon;timestamp;temperature;humidity
20162;DHT22;51382;53.180;15.414;2023-04-24T00:12:32;8.00;99.90
20162;DHT22;51382;53.180;15.414;2023-04-24T00:27:43;7.70;99.90
20162;DHT22;51382;53.180;15.414;2023-04-24T00:42:54;7.30;99.90
20162;DHT22;51382;53.180;15.414;2023-04-24T00:58:06;7.10;99.90
20162;DHT22;51382;53.180;15.414;2023-04-24T01:13:17;7.60;99.90
20162;DHT22;51382;53.180;15.414;2023-04-24T01:28:29;7.80;99.90
20162;DHT22;51382;53.180;15.414;2023-04-24T01:43:41;7.90;99.90
20162;DHT22;51382;53.180;15.414;2023-04-24T01:58:52;7.60;99.90
20162;DHT22;51382;53.180;15.414;2023-04-24T02:14:05;7.60;99.90
20162;DHT22;51382;53.180;15.414;2023-04-24T02:29:16;7.60;99.90
20162;DHT22;51382;53.180;15.414;2023-04-24T02:44:27;7.50;99.90
20162;DHT22;51382;53.180;15.414;2023-04-24T02:59:39;7.60;99.90
20162;DHT22;51382;53.180;15.414;2023-04-24T03:14:50;7.70;99.90
20162;DHT22;51382;53.180;15.414;2023-04-24T03:30:01;7.80;99.90
20162;DHT22;51382;53.180;15.414;2023-04-24T03:45:21;8.00;99.90
20162;DHT22;51382;53.180;15.414;2023-04-24T04:00:33;8.30;99.90
20162;DHT22;51382;53.180;15.414;2023-04-24T04:16:12;8.70;99.90
20162;DHT22;51382;53.180;15.414;2023-04-24T04:31:27;9.00;99.90
20162;DHT22;51382;53.180;15.414;2023-04-24T04:46:42;9.20;99.90
20162;DHT22;51382;53.180;15.414;2023-04-24T05:01:59;9.50;99.90
20162;DHT22;51382;53.180;15.414;2023-04-24T05:17:12;10.20;99.90
20162;DHT22;51382;53.180;15.414;2023-04-24T05:32:20;10.40;99.90
20162;DHT22;51382;53.180;15.414;2023-04-24T05:47:31;11.20;99.90
20162;DHT22;51382;53.180;15.414;2023-04-24T06:02:43;13.00;99.90
20162;DHT22;51382;53.180;15.414;2023-04-24T06:17:56;14.10;99.90
20162;DHT22;51382;53.180;15.414;2023-04-24T06:33:08;19.20;99.90
20162;DHT22;51382;53.180;15.414;2023-04-24T06:48:14;22.60;99.90
20162;DHT22;51382;53.180;15.414;2023-04-24T07:03:21;23.10;97.70
20162;DHT22;51382;53.180;15.414;2023-04-24T07:18:32;26.00;76.30
20162;DHT22;51382;53.180;15.414;2023-04-24T07:33:44;25.20;73.40
20162;DHT22;51382;53.180;15.414;2023-04-24T07:48:58;23.90;82.20
20162;DHT22;51382;53.180;15.414;2023-04-24T08:04:09;20.20;92.50
20162;DHT22;51382;53.180;15.414;2023-04-24T08:19:20;18.20;95.60
20162;DHT22;51382;53.180;15.414;2023-04-24T08:34:32;16.60;99.90
20162;DHT22;51382;53.180;15.414;2023-04-24T08:49:43;15.90;99.90
20162;DHT22;51382;53.180;15.414;2023-04-24T09:04:57;16.20;99.90
20162;DHT22;51382;53.180;15.414;2023-04-24T09:20:09;15.80;99.90
20162;DHT22;51382;53.180;15.414;2023-04-24T09:35:21;15.70;99.90
20162;DHT22;51382;53.180;15.414;2023-04-24T09:50:32;17.00;99.90
20162;DHT22;51382;53.180;15.414;2023-04-24T10:05:44;17.80;97.60
20162;DHT22;51382;53.180;15.414;2023-04-24T10:20:57;17.80;97.10
20162;DHT22;51382;53.180;15.414;2023-04-24T10:36:09;17.70;97.70
20162;DHT22;51382;53.180;15.414;2023-04-24T10:51:21;17.50;99.40
20162;DHT22;51382;53.180;15.414;2023-04-24T11:06:34;17.80;98.10
20162;DHT22;51382;53.180;15.414;2023-04-24T11:21:46;17.60;99.30
20162;DHT22;51382;53.180;15.414;2023-04-24T11:37:03;18.90;96.10
20162;DHT22;51382;53.180;15.414;2023-04-24T11:52:09;18.30;97.40
20162;DHT22;51382;53.180;15.414;2023-04-24T12:07:24;18.30;97.60
20162;DHT22;51382;53.180;15.414;2023-04-24T12:22:44;19.50;92.10
20162;DHT22;51382;53.180;15.414;2023-04-24T12:37:59;20.30;87.70
20162;DHT22;51382;53.180;15.414;2023-04-24T12:53:16;20.30;83.70
20162;DHT22;51382;53.180;15.414;2023-04-24T13:08:27;21.20;79.40
20162;DHT22;51382;53.180;15.414;2023-04-24T13:23:38;21.70;76.10
20162;DHT22;51382;53.180;15.414;2023-04-24T13:38:50;20.20;81.20
20162;DHT22;51382;53.180;15.414;2023-04-24T13:54:02;21.20;75.20
20162;DHT22;51382;53.180;15.414;2023-04-24T14:09:13;20.50;76.50
20162;DHT22;51382;53.180;15.414;2023-04-24T14:24:24;19.50;79.00
20162;DHT22;51382;53.180;15.414;2023-04-24T14:39:36;19.60;78.60
20162;DHT22;51382;53.180;15.414;2023-04-24T14:54:47;19.30;78.60
20162;DHT22;51382;53.180;15.414;2023-04-24T15:10:03;19.40;77.60
20162;DHT22;51382;53.180;15.414;2023-04-24T15:25:15;18.90;82.30
20162;DHT22;51382;53.180;15.414;2023-04-24T15:40:22;18.30;77.40
20162;DHT22;51382;53.180;15.414;2023-04-24T15:55:33;16.60;91.90
20162;DHT22;51382;53.180;15.414;2023-04-24T16:10:40;16.00;93.90
20162;DHT22;51382;53.180;15.414;2023-04-24T16:25:49;15.60;94.10
20162;DHT22;51382;53.180;15.414;2023-04-24T16:41:00;15.30;96.00
20162;DHT22;51382;53.180;15.414;2023-04-24T16:56:11;15.40;95.90
20162;DHT22;51382;53.180;15.414;2023-04-24T17:11:23;15.60;95.60
20162;DHT22;51382;53.180;15.414;2023-04-24T17:26:34;15.70;95.50
20162;DHT22;51382;53.180;15.414;2023-04-24T17:41:41;15.40;95.30
20162;DHT22;51382;53.180;15.414;2023-04-24T17:56:52;15.00;98.00
20162;DHT22;51382;53.180;15.414;2023-04-24T18:12:04;14.50;99.90
20162;DHT22;51382;53.180;15.414;2023-04-24T18:27:15;14.30;99.90
20162;DHT22;51382;53.180;15.414;2023-04-24T18:42:26;14.00;99.90
20162;DHT22;51382;53.180;15.414;2023-04-24T18:57:38;13.80;99.90
20162;DHT22;51382;53.180;15.414;2023-04-24T19:12:51;13.60;99.90
20162;DHT22;51382;53.180;15.414;2023-04-24T19:28:06;13.10;99.90
20162;DHT22;51382;53.180;15.414;2023-04-24T19:43:18;12.80;99.90
20162;DHT22;51382;53.180;15.414;2023-04-24T19:58:29;12.50;97.60
20162;DHT22;51382;53.180;15.414;2023-04-24T20:13:41;12.40;97.70
20162;DHT22;51382;53.180;15.414;2023-04-24T20:28:52;12.10;97.10
20162;DHT22;51382;53.180;15.414;2023-04-24T20:44:04;11.60;98.40
20162;DHT22;51382;53.180;15.414;2023-04-24T20:59:15;11.10;99.70
20162;DHT22;51382;53.180;15.414;2023-04-24T21:14:27;10.60;99.90
20162;DHT22;51382;53.180;15.414;2023-04-24T21:29:38;10.50;99.90
20162;DHT22;51382;53.180;15.414;2023-04-24T21:44:50;10.40;99.90
20162;DHT22;51382;53.180;15.414;2023-04-24T21:59:56;10.40;99.90
20162;DHT22;51382;53.180;15.414;2023-04-24T22:15:07;10.50;99.90
20162;DHT22;51382;53.180;15.414;2023-04-24T22:30:19;10.00;99.90
20162;DHT22;51382;53.180;15.414;2023-04-24T22:45:30;9.50;99.90
20162;DHT22;51382;53.180;15.414;2023-04-24T23:00:42;9.40;99.90
20162;DHT22;51382;53.180;15.414;2023-04-24T23:15:53;9.00;99.90
20162;DHT22;51382;53.180;15.414;2023-04-24T23:30:59;8.90;99.90
20162;DHT22;51382;53.180;15.414;2023-04-24T23:46:11;9.00;99.90
